createdAt,value
2018-03-26T00:01:55.416Z,27.73
2018-03-26T00:04:26.058Z,26.10
2018-03-26T00:06:56.784Z,26.83
2018-03-26T00:09:27.490Z,25.70
2018-03-26T00:11:58.027Z,25.63
2018-03-26T00:14:28.587Z,25.03
2018-03-26T00:17:00.162Z,26.50
2018-03-26T00:19:30.750Z,27.63
2018-03-26T00:22:01.671Z,25.30
2018-03-26T00:24:32.166Z,25.43
2018-03-26T00:27:02.679Z,25.37
2018-03-26T00:29:32.980Z,26.77
2018-03-26T00:32:03.893Z,26.27
2018-03-26T00:34:34.435Z,26.03
2018-03-26T00:37:05.065Z,25.03
2018-03-26T00:39:36.445Z,24.07
2018-03-26T00:42:07.264Z,25.70
2018-03-26T00:44:37.789Z,23.93
2018-03-26T00:47:08.425Z,24.13
2018-03-26T00:49:39.829Z,25.63
2018-03-26T00:52:10.274Z,23.17
2018-03-26T00:54:40.834Z,23.33
2018-03-26T00:57:12.684Z,21.77
2018-03-26T00:59:43.629Z,21.73
2018-03-26T01:02:14.739Z,20.67
2018-03-26T01:04:45.653Z,21.83
2018-03-26T01:07:16.272Z,22.37
2018-03-26T01:09:46.671Z,21.43
2018-03-26T01:12:17.441Z,21.70
2018-03-26T01:14:48.088Z,21.47
2018-03-26T01:17:18.637Z,22.60
2018-03-26T01:19:49.522Z,22.03
2018-03-26T01:22:20.389Z,23.30
2018-03-26T01:24:50.823Z,23.47
2018-03-26T01:27:20.679Z,22.03
2018-03-26T01:29:51.182Z,23.93
2018-03-26T01:32:21.751Z,23.70
2018-03-26T01:34:52.027Z,22.70
2018-03-26T01:37:22.596Z,20.80
2018-03-26T01:39:53.664Z,24.23
2018-03-26T01:42:26.821Z,26.50
2018-03-26T01:44:57.261Z,24.47
2018-03-26T01:47:27.568Z,25.03
2018-03-26T01:49:58.485Z,24.40
2018-03-26T01:52:28.936Z,25.37
2018-03-26T01:54:59.385Z,23.97
2018-03-26T01:57:29.674Z,23.90
2018-03-26T02:00:00.115Z,23.00
2018-03-26T02:02:32.361Z,22.83
2018-03-26T02:05:03.091Z,24.57
2018-03-26T02:07:33.787Z,21.57
2018-03-26T02:10:04.514Z,19.90
2018-03-26T02:12:35.022Z,19.50
2018-03-26T02:15:05.850Z,17.50
2018-03-26T02:17:36.186Z,17.33
2018-03-26T02:20:06.588Z,17.57
2018-03-26T02:22:37.639Z,17.63
2018-03-26T02:25:08.275Z,16.87
2018-03-26T02:27:38.874Z,17.43
2018-03-26T02:30:09.670Z,17.77
2018-03-26T02:32:40.391Z,17.80
2018-03-26T02:35:11.031Z,17.37
2018-03-26T02:37:41.329Z,18.87
2018-03-26T02:40:11.851Z,17.33
2018-03-26T02:42:41.881Z,19.40
2018-03-26T02:45:12.622Z,18.63
2018-03-26T02:47:43.159Z,18.27
2018-03-26T02:50:15.204Z,20.40
2018-03-26T02:52:45.747Z,20.03
2018-03-26T02:55:16.369Z,19.70
2018-03-26T02:57:47.043Z,19.40
2018-03-26T03:00:18.151Z,18.33
2018-03-26T03:02:47.960Z,19.67
2018-03-26T03:05:19.015Z,20.27
2018-03-26T03:07:48.996Z,19.67
2018-03-26T03:10:19.822Z,19.27
2018-03-26T03:12:49.773Z,19.33
2018-03-26T03:15:20.893Z,19.80
2018-03-26T03:17:50.933Z,19.33
2018-03-26T03:20:21.670Z,19.30
2018-03-26T03:22:52.508Z,18.53
2018-03-26T03:25:23.444Z,18.23
2018-03-26T03:27:54.398Z,20.63
2018-03-26T03:30:25.204Z,18.53
2018-03-26T03:32:55.835Z,19.57
2018-03-26T03:35:26.773Z,19.57
2018-03-26T03:37:57.670Z,19.27
2018-03-26T03:40:28.359Z,19.80
2018-03-26T03:42:59.665Z,18.73
2018-03-26T03:45:29.615Z,17.87
2018-03-26T03:48:00.151Z,19.70
2018-03-26T03:50:31.320Z,18.47
2018-03-26T03:53:02.958Z,18.40
2018-03-26T03:55:33.273Z,18.97
2018-03-26T03:58:04.035Z,19.60
2018-03-26T04:00:34.810Z,17.73
2018-03-26T04:03:07.015Z,16.17
2018-03-26T04:05:37.332Z,16.30
2018-03-26T04:08:08.342Z,17.73
2018-03-26T04:10:39.221Z,17.03
2018-03-26T04:13:10.647Z,17.10
2018-03-26T04:15:41.173Z,15.87
2018-03-26T04:18:11.975Z,17.33
2018-03-26T04:20:42.558Z,17.77
2018-03-26T04:23:13.509Z,16.77
2018-03-26T04:25:43.614Z,16.77
2018-03-26T04:28:14.169Z,15.97
2018-03-26T04:30:45.034Z,15.87
2018-03-26T04:33:15.516Z,15.97
2018-03-26T04:35:45.795Z,13.93
2018-03-26T04:38:16.734Z,14.20
2018-03-26T04:40:47.489Z,13.43
2018-03-26T04:43:17.816Z,14.70
2018-03-26T04:45:49.494Z,14.33
2018-03-26T04:48:20.012Z,12.97
2018-03-26T04:50:50.754Z,13.73
2018-03-26T04:53:21.432Z,13.97
2018-03-26T04:55:51.823Z,13.50
2018-03-26T04:58:22.793Z,14.00
2018-03-26T05:00:53.344Z,14.53
2018-03-26T05:03:24.015Z,13.83
2018-03-26T05:05:54.439Z,14.27
2018-03-26T05:08:25.116Z,14.00
2018-03-26T05:10:55.468Z,14.27
2018-03-26T05:13:26.427Z,24.13
2018-03-26T05:15:56.741Z,16.40
2018-03-26T05:18:28.017Z,15.03
2018-03-26T05:20:59.227Z,15.80
2018-03-26T05:23:30.054Z,15.87
2018-03-26T05:26:00.889Z,16.53
2018-03-26T05:28:32.497Z,15.83
2018-03-26T05:31:03.894Z,16.40
2018-03-26T05:33:34.122Z,15.73
2018-03-26T05:36:03.877Z,14.77
2018-03-26T05:38:33.842Z,16.13
2018-03-26T05:41:05.167Z,16.50
2018-03-26T05:43:36.120Z,17.63
2018-03-26T05:46:06.961Z,15.70
2018-03-26T05:48:38.331Z,17.13
2018-03-26T05:51:08.182Z,17.87
2018-03-26T05:53:38.909Z,17.27
2018-03-26T05:56:09.726Z,16.37
2018-03-26T05:58:40.241Z,17.23
2018-03-26T06:01:11.648Z,18.27
2018-03-26T06:03:41.726Z,18.00
2018-03-26T06:06:11.645Z,17.47
2018-03-26T06:08:42.283Z,17.37
2018-03-26T06:11:13.074Z,18.10
2018-03-26T06:13:43.826Z,17.57
2018-03-26T06:16:14.775Z,16.80
2018-03-26T06:18:45.442Z,15.73
2018-03-26T06:21:15.950Z,16.73
2018-03-26T06:23:46.685Z,16.77
2018-03-26T06:26:17.108Z,17.57
2018-03-26T06:28:47.768Z,16.60
2018-03-26T06:31:18.833Z,17.27
2018-03-26T06:33:49.204Z,19.43
2018-03-26T06:36:36.222Z,20.80
2018-03-26T06:39:12.468Z,20.30
2018-03-26T06:41:43.696Z,20.70
2018-03-26T06:44:14.428Z,20.27
2018-03-26T06:46:45.402Z,20.73
2018-03-26T06:49:15.638Z,19.97
2018-03-26T06:51:46.342Z,17.50
2018-03-26T06:54:16.791Z,17.97
2018-03-26T06:56:47.760Z,21.63
2018-03-26T06:59:18.439Z,17.70
2018-03-26T07:01:49.348Z,16.13
2018-03-26T07:04:20.304Z,17.50
2018-03-26T07:06:51.562Z,17.17
2018-03-26T07:09:21.943Z,16.97
2018-03-26T07:11:52.441Z,17.70
2018-03-26T07:14:23.342Z,17.53
2018-03-26T07:16:53.884Z,18.57
2018-03-26T07:19:24.334Z,19.30
2018-03-26T07:21:54.890Z,20.67
2018-03-26T07:24:26.024Z,37.30
2018-03-26T07:26:56.919Z,37.73
2018-03-26T07:29:27.258Z,39.07
2018-03-26T07:31:57.849Z,38.07
2018-03-26T07:34:29.304Z,38.17
2018-03-26T07:36:59.996Z,36.53
2018-03-26T07:39:30.799Z,43.73
2018-03-26T07:42:01.415Z,42.13
2018-03-26T07:44:32.086Z,42.43
2018-03-26T07:47:02.524Z,41.80
2018-03-26T07:49:33.324Z,37.53
2018-03-26T07:52:03.873Z,38.40
2018-03-26T07:54:34.727Z,39.83
2018-03-26T07:57:05.472Z,38.90
2018-03-26T07:59:35.477Z,39.33
2018-03-26T08:02:06.031Z,38.97
2018-03-26T08:04:37.040Z,37.07
2018-03-26T08:07:07.783Z,40.67
2018-03-26T08:09:38.481Z,36.80
2018-03-26T08:12:09.940Z,39.10
2018-03-26T08:14:40.583Z,40.60
2018-03-26T08:17:11.420Z,32.13
2018-03-26T08:19:42.111Z,35.33
2018-03-26T08:22:13.249Z,37.47
2018-03-26T08:24:44.182Z,35.47
2018-03-26T08:27:14.665Z,35.20
2018-03-26T08:29:45.149Z,37.83
2018-03-26T08:32:16.210Z,40.07
2018-03-26T08:34:47.078Z,34.83
2018-03-26T08:37:17.533Z,33.87
2018-03-26T08:39:48.965Z,33.90
2018-03-26T08:42:19.648Z,34.93
2018-03-26T08:44:50.539Z,31.93
2018-03-26T08:47:21.133Z,31.63
2018-03-26T08:49:51.026Z,31.77
2018-03-26T08:52:22.012Z,30.90
2018-03-26T08:54:52.827Z,32.80
2018-03-26T08:57:24.000Z,31.43
2018-03-26T08:59:54.996Z,31.03
2018-03-26T09:02:26.098Z,32.73
2018-03-26T09:04:57.393Z,30.13
2018-03-26T09:07:28.692Z,29.77
2018-03-26T09:09:59.632Z,29.70
2018-03-26T09:12:30.548Z,31.20
2018-03-26T09:15:01.393Z,30.07
2018-03-26T09:17:32.111Z,29.93
2018-03-26T09:20:03.316Z,30.20
2018-03-26T09:22:33.458Z,28.80
2018-03-26T09:25:04.960Z,31.50
2018-03-26T09:27:36.040Z,32.33
2018-03-26T09:30:07.220Z,29.77
2018-03-26T09:32:38.158Z,30.90
2018-03-26T09:35:08.453Z,32.47
2018-03-26T09:37:39.076Z,29.80
2018-03-26T09:40:09.844Z,29.83
2018-03-26T09:42:40.185Z,28.07
2018-03-26T09:45:10.393Z,31.73
2018-03-26T09:47:40.773Z,28.83
2018-03-26T09:50:11.591Z,28.90
2018-03-26T09:52:42.543Z,30.63
2018-03-26T09:55:13.106Z,33.07
2018-03-26T09:57:44.272Z,31.47
2018-03-26T10:00:17.576Z,32.60
2018-03-26T10:02:48.402Z,32.20
2018-03-26T10:05:18.922Z,31.53
2018-03-26T10:07:49.638Z,31.70
2018-03-26T10:10:20.291Z,32.70
2018-03-26T10:12:50.928Z,31.97
2018-03-26T10:15:21.566Z,31.40
2018-03-26T10:17:52.192Z,29.90
2018-03-26T10:20:22.993Z,30.13
2018-03-26T10:22:53.248Z,29.17
2018-03-26T10:25:23.773Z,28.63
2018-03-26T10:27:55.437Z,30.57
2018-03-26T10:30:26.166Z,28.33
2018-03-26T10:32:57.351Z,30.97
2018-03-26T10:35:27.838Z,32.70
2018-03-26T10:37:59.194Z,33.77
2018-03-26T10:40:30.128Z,36.30
2018-03-26T10:43:00.870Z,35.47
2018-03-26T10:45:31.391Z,33.53
2018-03-26T10:48:02.023Z,33.83
2018-03-26T10:50:31.940Z,34.87
2018-03-26T10:53:02.877Z,35.63
2018-03-26T10:55:33.836Z,37.43
2018-03-26T10:58:04.796Z,35.03
2018-03-26T11:00:35.278Z,36.90
2018-03-26T11:03:05.947Z,32.67
2018-03-26T11:05:37.330Z,34.77
2018-03-26T11:08:07.852Z,36.30
2018-03-26T11:10:38.545Z,40.37
2018-03-26T11:13:09.482Z,38.40
2018-03-26T11:15:40.070Z,40.13
2018-03-26T11:18:10.514Z,35.93
2018-03-26T11:20:41.461Z,36.57
2018-03-26T11:23:12.312Z,35.30
2018-03-26T11:25:42.911Z,38.43
2018-03-26T11:28:12.753Z,38.03
2018-03-26T11:30:43.468Z,37.93
2018-03-26T11:33:14.071Z,34.10
2018-03-26T11:35:44.746Z,37.50
2018-03-26T11:38:15.739Z,39.40
2018-03-26T11:40:46.156Z,36.03
2018-03-26T11:43:16.804Z,34.87
2018-03-26T11:45:47.084Z,34.77
2018-03-26T11:48:17.859Z,30.33
2018-03-26T11:50:48.229Z,32.80
2018-03-26T11:53:19.177Z,36.50
2018-03-26T11:55:49.946Z,33.00
2018-03-26T11:58:20.617Z,34.20
2018-03-26T12:00:51.585Z,35.97
2018-03-26T12:03:23.642Z,37.80
2018-03-26T12:05:53.918Z,37.93
2018-03-26T12:08:24.476Z,33.70
2018-03-26T12:10:55.218Z,34.77
2018-03-26T12:13:25.858Z,32.53
2018-03-26T12:15:56.942Z,31.50
2018-03-26T12:18:27.472Z,29.63
2018-03-26T12:21:01.808Z,34.17
2018-03-26T12:23:43.988Z,31.33
2018-03-26T12:26:14.261Z,32.53
2018-03-26T12:28:56.472Z,34.30
2018-03-26T12:31:27.439Z,32.80
2018-03-26T12:34:09.508Z,33.77
2018-03-26T12:36:39.797Z,32.10
2018-03-26T12:39:10.641Z,35.07
2018-03-26T12:41:41.295Z,37.37
2018-03-26T12:44:11.856Z,31.27
2018-03-26T12:46:46.178Z,34.30
2018-03-26T12:49:16.568Z,32.67
2018-03-26T12:51:58.690Z,37.50
2018-03-26T12:54:28.704Z,34.60
2018-03-26T12:57:10.599Z,33.43
2018-03-26T12:59:41.456Z,38.10
2018-03-26T13:02:23.022Z,33.93
2018-03-26T13:04:53.839Z,33.47
2018-03-26T13:07:25.212Z,37.83
2018-03-26T13:09:55.819Z,31.87
2018-03-26T13:12:26.156Z,34.73
2018-03-26T13:14:56.402Z,31.70
2018-03-26T13:17:27.164Z,33.67
2018-03-26T13:19:57.846Z,35.40
2018-03-26T13:22:28.687Z,30.20
2018-03-26T13:24:59.599Z,28.17
2018-03-26T13:27:30.441Z,32.00
2018-03-26T13:30:00.769Z,28.77
2018-03-26T13:32:31.577Z,29.13
2018-03-26T13:35:02.622Z,26.37
2018-03-26T13:37:34.169Z,31.00
2018-03-26T13:40:05.562Z,31.27
2018-03-26T13:42:35.740Z,32.00
2018-03-26T13:45:06.015Z,28.73
2018-03-26T13:47:36.434Z,31.87
2018-03-26T13:50:07.041Z,29.13
2018-03-26T13:52:37.384Z,30.07
2018-03-26T13:55:08.234Z,27.83
2018-03-26T13:57:39.021Z,27.13
2018-03-26T14:00:10.096Z,28.23
2018-03-26T14:02:40.737Z,27.73
2018-03-26T14:05:11.118Z,26.33
2018-03-26T14:07:42.181Z,25.10
2018-03-26T14:10:24.327Z,26.70
2018-03-26T14:13:06.007Z,27.77
2018-03-26T14:15:48.354Z,28.67
2018-03-26T14:18:19.138Z,23.27
2018-03-26T14:20:49.775Z,26.20
2018-03-26T14:23:20.523Z,25.70
2018-03-26T14:25:51.147Z,28.77
2018-03-26T14:28:21.978Z,24.67
2018-03-26T14:30:52.311Z,23.57
2018-03-26T14:33:22.828Z,22.47
2018-03-26T14:35:52.963Z,26.17
2018-03-26T14:38:23.899Z,23.63
2018-03-26T14:40:54.412Z,26.60
2018-03-26T14:43:25.280Z,26.30
2018-03-26T14:45:56.483Z,25.77
2018-03-26T14:48:27.497Z,20.20
2018-03-26T14:50:58.336Z,29.77
2018-03-26T14:53:29.211Z,31.83
2018-03-26T14:56:00.753Z,34.47
2018-03-26T14:58:31.777Z,29.63
2018-03-26T15:01:02.680Z,30.30
2018-03-26T15:03:34.200Z,29.17
2018-03-26T15:06:05.318Z,25.90
2018-03-26T15:08:35.462Z,27.30
2018-03-26T15:11:06.611Z,20.87
2018-03-26T15:13:37.613Z,28.57
2018-03-26T15:16:07.968Z,24.73
2018-03-26T15:18:38.295Z,31.40
2018-03-26T15:21:09.234Z,21.57
2018-03-26T15:23:40.051Z,26.10
2018-03-26T15:26:11.267Z,28.87
2018-03-26T15:28:42.508Z,26.13
2018-03-26T15:31:13.630Z,26.47
2018-03-26T15:33:43.982Z,30.03
2018-03-26T15:36:14.565Z,27.43
2018-03-26T15:38:45.622Z,30.23
2018-03-26T15:41:16.925Z,27.73
2018-03-26T15:43:47.685Z,33.37
2018-03-26T15:46:18.847Z,28.30
2018-03-26T15:48:48.737Z,30.10
2018-03-26T15:51:19.295Z,27.70
2018-03-26T15:53:49.706Z,31.50
2018-03-26T15:56:20.047Z,30.07
2018-03-26T15:58:50.761Z,28.97
2018-03-26T16:01:21.451Z,28.83
2018-03-26T16:03:52.392Z,34.27
2018-03-26T16:06:22.922Z,33.50
2018-03-26T16:08:53.549Z,28.53
2018-03-26T16:11:24.207Z,25.87
2018-03-26T16:13:54.040Z,32.90
2018-03-26T16:16:24.873Z,32.30
2018-03-26T16:18:55.782Z,33.27
2018-03-26T16:21:27.214Z,29.20
2018-03-26T16:23:57.898Z,26.43
2018-03-26T16:26:29.019Z,34.87
2018-03-26T16:29:00.142Z,31.17
2018-03-26T16:31:30.903Z,30.30
2018-03-26T16:34:01.540Z,29.83
2018-03-26T16:36:31.512Z,31.90
2018-03-26T16:39:02.095Z,33.37
2018-03-26T16:41:44.305Z,32.27
2018-03-26T16:44:15.423Z,28.37
2018-03-26T16:46:46.261Z,27.47
2018-03-26T16:49:17.349Z,28.13
2018-03-26T16:51:47.900Z,29.50
2018-03-26T16:54:18.780Z,29.00
2018-03-26T16:56:50.012Z,30.13
2018-03-26T16:59:21.114Z,28.77
2018-03-26T17:01:51.870Z,29.90
2018-03-26T17:04:22.873Z,29.90
2018-03-26T17:06:53.873Z,26.33
2018-03-26T17:09:24.590Z,25.10
2018-03-26T17:11:55.906Z,26.97
2018-03-26T17:14:26.770Z,23.13
2018-03-26T17:16:58.516Z,24.80
2018-03-26T17:19:28.385Z,25.70
2018-03-26T17:21:59.659Z,25.87
2018-03-26T17:24:30.199Z,27.33
2018-03-26T17:27:01.064Z,27.60
2018-03-26T17:29:32.011Z,25.30
2018-03-26T17:32:03.134Z,29.63
2018-03-26T17:34:34.415Z,20.50
2018-03-26T17:37:05.132Z,29.30
2018-03-26T17:39:35.579Z,24.50
2018-03-26T17:42:07.588Z,26.23
2018-03-26T17:44:38.102Z,23.60
2018-03-26T17:47:09.457Z,22.13
2018-03-26T17:49:40.133Z,24.97
2018-03-26T17:52:11.226Z,21.23
2018-03-26T17:54:42.465Z,24.77
2018-03-26T17:57:13.312Z,25.73
2018-03-26T17:59:44.521Z,26.30
2018-03-26T18:02:15.767Z,26.13
2018-03-26T18:04:46.404Z,23.83
2018-03-26T18:07:17.241Z,28.17
2018-03-26T18:09:48.515Z,24.83
2018-03-26T18:12:19.134Z,23.47
2018-03-26T18:14:49.952Z,22.37
2018-03-26T18:17:20.483Z,23.57
2018-03-26T18:19:50.918Z,24.77
2018-03-26T18:22:20.897Z,24.40
2018-03-26T18:24:52.147Z,23.30
2018-03-26T18:27:23.005Z,24.90
2018-03-26T18:29:53.745Z,24.83
2018-03-26T18:32:24.295Z,23.33
2018-03-26T18:34:54.975Z,22.70
2018-03-26T18:37:25.847Z,24.27
2018-03-26T18:39:56.437Z,22.67
2018-03-26T18:42:26.917Z,24.33
2018-03-26T18:44:57.605Z,24.30
2018-03-26T18:47:28.370Z,25.47
2018-03-26T18:49:59.489Z,26.60
2018-03-26T18:52:29.852Z,25.20
2018-03-26T18:55:00.590Z,25.20
2018-03-26T18:57:30.492Z,24.40
2018-03-26T19:00:01.545Z,24.30
2018-03-26T19:02:32.058Z,24.40
2018-03-26T19:05:02.347Z,24.53
2018-03-26T19:07:33.031Z,24.30
2018-03-26T19:10:03.709Z,26.00
2018-03-26T19:12:33.937Z,27.30
2018-03-26T19:15:04.458Z,28.20
2018-03-26T19:17:34.515Z,29.07
2018-03-26T19:20:05.261Z,34.30
2018-03-26T19:22:35.782Z,34.37
2018-03-26T19:25:06.636Z,38.50
2018-03-26T19:27:37.365Z,37.13
2018-03-26T19:30:07.993Z,37.03
2018-03-26T19:32:38.843Z,34.43
2018-03-26T19:35:09.765Z,28.33
2018-03-26T19:37:40.612Z,30.33
2018-03-26T19:40:11.594Z,34.47
2018-03-26T19:42:41.826Z,35.10
2018-03-26T19:45:12.083Z,32.63
2018-03-26T19:47:42.823Z,35.60
2018-03-26T19:50:13.615Z,37.13
2018-03-26T19:52:44.603Z,31.67
2018-03-26T19:55:15.007Z,39.67
2018-03-26T19:57:45.346Z,39.13
2018-03-26T20:00:16.350Z,38.37
2018-03-26T20:02:47.441Z,38.77
2018-03-26T20:05:17.639Z,38.10
2018-03-26T20:07:48.662Z,37.63
2018-03-26T20:10:19.398Z,33.20
2018-03-26T20:12:50.332Z,35.03
2018-03-26T20:15:21.313Z,35.77
2018-03-26T20:17:52.150Z,33.43
2018-03-26T20:20:22.886Z,33.93
2018-03-26T20:22:54.029Z,38.20
2018-03-26T20:25:24.617Z,39.83
2018-03-26T20:27:55.613Z,35.10
2018-03-26T20:30:26.622Z,36.97
2018-03-26T20:32:57.129Z,29.63
2018-03-26T20:35:28.483Z,31.53
2018-03-26T20:37:59.299Z,29.73
2018-03-26T20:40:30.083Z,34.03
2018-03-26T20:43:00.911Z,34.73
2018-03-26T20:45:31.814Z,33.43
2018-03-26T20:48:02.742Z,30.20
2018-03-26T20:50:33.083Z,32.43
2018-03-26T20:53:03.631Z,32.07
2018-03-26T20:55:34.376Z,28.37
2018-03-26T20:58:04.825Z,26.53
2018-03-26T21:00:35.702Z,26.70
2018-03-26T21:03:06.182Z,31.23
2018-03-26T21:05:36.799Z,25.07
2018-03-26T21:08:07.428Z,30.53
2018-03-26T21:10:38.579Z,27.93
2018-03-26T21:13:09.684Z,29.13
2018-03-26T21:15:40.269Z,30.13
2018-03-26T21:18:11.152Z,30.17
2018-03-26T21:20:41.236Z,28.60
2018-03-26T21:23:11.830Z,31.20
2018-03-26T21:25:42.468Z,33.60
2018-03-26T21:28:13.317Z,34.07
2018-03-26T21:30:45.428Z,33.90
2018-03-26T21:33:15.959Z,34.17
2018-03-26T21:35:46.747Z,35.00
2018-03-26T21:38:17.369Z,32.80
2018-03-26T21:40:48.016Z,32.17
2018-03-26T21:43:17.911Z,33.60
2018-03-26T21:45:48.355Z,32.57
2018-03-26T21:48:19.785Z,33.10
2018-03-26T21:50:52.274Z,32.87
2018-03-26T21:53:23.079Z,31.83
2018-03-26T21:55:53.216Z,30.40
2018-03-26T21:58:24.163Z,32.43
2018-03-26T22:00:54.770Z,31.03
2018-03-26T22:03:25.582Z,31.50
2018-03-26T22:05:57.153Z,32.67
2018-03-26T22:08:27.711Z,30.97
2018-03-26T22:10:58.936Z,30.90
2018-03-26T22:13:29.080Z,31.87
2018-03-26T22:15:59.419Z,31.27
2018-03-26T22:18:29.311Z,31.43
2018-03-26T22:20:59.720Z,30.33
2018-03-26T22:23:29.979Z,30.50
2018-03-26T22:26:00.423Z,30.53
2018-03-26T22:28:31.224Z,29.03
2018-03-26T22:31:02.061Z,29.60
2018-03-26T22:33:33.136Z,29.67
2018-03-26T22:36:03.135Z,29.23
2018-03-26T22:38:33.055Z,29.53
2018-03-26T22:41:03.541Z,29.50
2018-03-26T22:43:34.082Z,28.67
2018-03-26T22:46:04.909Z,28.17
2018-03-26T22:48:35.449Z,29.03
2018-03-26T22:51:06.181Z,28.20
2018-03-26T22:53:36.625Z,27.47
2018-03-26T22:56:07.265Z,27.90
2018-03-26T22:58:37.884Z,26.40
2018-03-26T23:01:07.693Z,21.60
2018-03-26T23:03:38.250Z,21.87
2018-03-26T23:06:08.887Z,20.33
2018-03-26T23:08:39.548Z,26.00
2018-03-26T23:11:10.358Z,27.93
2018-03-26T23:13:41.213Z,24.40
2018-03-26T23:16:12.325Z,25.37
2018-03-26T23:18:42.739Z,25.07
2018-03-26T23:21:13.167Z,22.80
2018-03-26T23:23:43.725Z,23.37
2018-03-26T23:26:14.506Z,22.63
2018-03-26T23:28:44.989Z,25.50
2018-03-26T23:31:15.928Z,26.40
2018-03-26T23:33:46.437Z,25.93
2018-03-26T23:36:16.766Z,22.60
2018-03-26T23:38:47.847Z,20.30
2018-03-26T23:41:18.641Z,19.70
2018-03-26T23:43:49.354Z,18.87
2018-03-26T23:46:20.134Z,18.03
2018-03-26T23:48:50.520Z,17.27
2018-03-26T23:51:21.264Z,22.10
2018-03-26T23:53:53.644Z,21.10
2018-03-26T23:56:24.667Z,20.00
2018-03-26T23:58:55.190Z,15.20
